Albany, New York
Traffic Map
Current Weather Conditions
Albany, New York
Overcast Light Rain
Overcast
11°
Feels Like: 11°
Wind Chill: 11° Ceiling: 700
Heat Index: 11° Visibility: 2.5mi
Dew Point: Wind: 7mph
Humidity: 89% Direction: 290° (WNW)
Pressure: 29.58in Gusts: 0mph
Raw Report DataKALB 211131Z 29006KT 2 1/2SM -RA BR SCT004 BKN007 OVC012 11/09 A2958 RMK AO2 DZB09E23RAB23 P0001 T01060089
Traffic Incident Summary
Active as of:
Severity:
Category:
InformationThere was an issue retrieving the traffic information for this location. Please try a different location or try again shortly.
Advertisements
Track Severe Weather on mobile